KMGR/MGR METAR and TAF weather

Enter ICAO airport designator
Station Type Date Time Source
KMGR METAR 2022/12/10 02:35 UTC NOAA

KMGR 100235Z AUTO 00000KT 5SM BR CLR 17/16 A3013 RMK AO2


Station Type Date Time Source
KMGR Decoded METAR 2022/12/10 02:35 UTC NOAA

Moultrie, Moultrie Municipal Airport, GA, United States (KMGR) 31-05-05N 083-48-11W
Dec 09, 2022 - 09:35 PM EST / 2022.12.10 0235 UTC
Wind: Calm:0
Visibility: 5 mile(s):0
Sky conditions: clear
Weather: mist
Temperature: 62 F (17 C)
Dew Point: 60 F (16 C)
Relative Humidity: 93%
Pressure (altimeter): 30.13 in. Hg (1020 hPa)
ob: KMGR 100235Z AUTO 00000KT 5SM BR CLR 17/16 A3013 RMK AO2
cycle: 2

Station Type Date Time Source
KMGR TAF UTC NOAA

Error!

Example: see airport list